createdAt,value
2022-11-02T00:01:56.301Z,30.48
2022-11-02T00:03:58.511Z,31.00
2022-11-02T00:06:00.815Z,30.13
2022-11-02T00:08:02.955Z,28.52
2022-11-02T00:10:05.541Z,27.23
2022-11-02T00:12:08.097Z,27.25
2022-11-02T00:14:10.726Z,25.33
2022-11-02T00:16:15.939Z,25.50
2022-11-02T00:18:17.995Z,25.92
2022-11-02T00:20:23.782Z,24.80
2022-11-02T00:22:27.205Z,26.13
2022-11-02T00:24:31.337Z,24.75
2022-11-02T00:26:36.342Z,24.55
2022-11-02T00:28:38.426Z,24.98
2022-11-02T00:30:41.284Z,24.80
2022-11-02T00:32:43.632Z,25.27
2022-11-02T00:34:45.643Z,26.42
2022-11-02T00:36:51.740Z,26.90
2022-11-02T00:38:56.544Z,28.80
2022-11-02T00:41:00.553Z,33.53
2022-11-02T00:43:02.791Z,29.25
2022-11-02T00:45:05.469Z,29.52
2022-11-02T00:47:07.714Z,28.52
2022-11-02T00:49:10.155Z,27.77
2022-11-02T00:51:12.269Z,29.42
2022-11-02T00:53:17.126Z,28.83
2022-11-02T00:55:26.373Z,28.38
2022-11-02T00:57:31.817Z,29.60
2022-11-02T00:59:33.984Z,28.77
2022-11-02T01:01:37.082Z,27.00
2022-11-02T01:03:42.437Z,27.98
2022-11-02T01:09:47.059Z,30.50
2022-11-02T01:11:49.147Z,33.30
2022-11-02T01:14:41.715Z,41.72
2022-11-02T01:18:52.531Z,45.72
2022-11-02T01:20:58.780Z,42.97
2022-11-02T01:23:03.262Z,39.33
2022-11-02T01:25:06.144Z,36.40
2022-11-02T01:27:08.474Z,33.42
2022-11-02T01:29:11.765Z,33.25
2022-11-02T01:31:14.413Z,32.33
2022-11-02T01:33:16.436Z,31.73
2022-11-02T01:35:21.628Z,30.48
2022-11-02T01:37:23.675Z,32.13
2022-11-02T01:39:25.703Z,32.45
2022-11-02T01:41:27.759Z,30.73
2022-11-02T01:43:33.262Z,31.67
2022-11-02T01:45:35.739Z,32.10
2022-11-02T01:47:41.480Z,30.10
2022-11-02T01:49:46.690Z,31.67
2022-11-02T01:52:05.952Z,30.40
2022-11-02T01:54:16.249Z,32.03
2022-11-02T01:58:28.953Z,31.45
2022-11-02T02:00:31.521Z,34.13
2022-11-02T02:02:40.155Z,32.60
2022-11-02T02:04:44.274Z,44.00
2022-11-02T02:06:46.635Z,49.42
2022-11-02T02:08:51.633Z,72.82
2022-11-02T02:10:57.880Z,97.60
2022-11-02T02:13:01.108Z,107.22
2022-11-02T02:15:04.214Z,115.57
2022-11-02T02:17:12.609Z,119.18
2022-11-02T02:19:44.856Z,121.03
2022-11-02T02:21:52.834Z,102.70
2022-11-02T02:24:16.562Z,75.20
2022-11-02T02:26:59.776Z,65.13
2022-11-02T02:29:10.997Z,46.47
2022-11-02T02:31:24.771Z,45.13
2022-11-02T02:33:37.535Z,41.45
2022-11-02T02:36:03.461Z,37.85
2022-11-02T02:38:11.848Z,33.67
2022-11-02T02:40:19.588Z,37.38
2022-11-02T02:42:34.094Z,52.10
2022-11-02T02:44:39.440Z,53.47
2022-11-02T02:46:56.257Z,54.45
2022-11-02T02:49:01.586Z,46.15
2022-11-02T02:51:12.837Z,43.42
2022-11-02T02:53:16.796Z,41.67
2022-11-02T02:55:27.023Z,42.65
2022-11-02T02:57:32.626Z,47.60
2022-11-02T02:59:46.422Z,46.03
2022-11-02T03:01:50.112Z,44.88
2022-11-02T03:03:52.395Z,40.75
2022-11-02T03:06:07.531Z,36.97
2022-11-02T03:08:17.010Z,32.08
2022-11-02T03:10:43.359Z,34.97
2022-11-02T03:13:07.054Z,40.03
2022-11-02T03:15:16.304Z,54.35
2022-11-02T03:17:20.867Z,55.58
2022-11-02T03:19:44.701Z,48.05
2022-11-02T03:21:53.429Z,44.63
2022-11-02T03:24:24.898Z,46.70
2022-11-02T03:26:48.775Z,53.45
2022-11-02T03:28:54.034Z,60.92
2022-11-02T03:31:20.154Z,65.68
2022-11-02T03:33:28.117Z,53.92
2022-11-02T03:35:42.504Z,53.70
2022-11-02T03:38:07.438Z,49.00
2022-11-02T03:40:19.198Z,52.63
2022-11-02T03:42:26.184Z,54.22
2022-11-02T03:44:32.324Z,52.88
2022-11-02T03:46:38.712Z,46.55
2022-11-02T03:48:49.218Z,40.08
2022-11-02T03:50:55.180Z,36.05
2022-11-02T03:53:06.717Z,35.58
2022-11-02T03:55:17.615Z,36.13
2022-11-02T03:57:24.182Z,36.00
2022-11-02T03:59:31.819Z,36.58
2022-11-02T04:01:42.301Z,33.10
2022-11-02T04:03:46.481Z,31.42
2022-11-02T04:05:48.711Z,33.35
2022-11-02T04:08:14.837Z,31.08
2022-11-02T04:10:18.710Z,30.05
2022-11-02T04:12:39.453Z,31.52
2022-11-02T04:14:43.055Z,29.65
2022-11-02T04:17:11.305Z,31.05
2022-11-02T04:19:30.108Z,33.03
2022-11-02T04:21:38.251Z,32.25
2022-11-02T04:23:58.951Z,32.03
2022-11-02T04:26:01.266Z,31.98
2022-11-02T04:28:18.154Z,31.40
2022-11-02T04:30:24.358Z,31.92
2022-11-02T04:32:51.644Z,30.90
2022-11-02T04:34:53.877Z,35.13
2022-11-02T04:36:56.324Z,56.42
2022-11-02T04:38:59.109Z,58.35
2022-11-02T04:41:31.237Z,59.25
2022-11-02T04:43:34.207Z,43.10
2022-11-02T04:45:36.635Z,38.97
2022-11-02T04:47:39.065Z,34.58
2022-11-02T04:49:41.238Z,32.85
2022-11-02T04:51:49.905Z,32.15
2022-11-02T04:53:58.183Z,31.88
2022-11-02T04:56:00.247Z,36.00
2022-11-02T04:58:03.274Z,32.67
2022-11-02T05:00:07.918Z,36.05
2022-11-02T05:02:10.244Z,40.20
2022-11-02T05:04:13.407Z,37.97
2022-11-02T05:06:16.758Z,35.70
2022-11-02T05:08:18.643Z,35.20
2022-11-02T05:10:20.733Z,52.90
2022-11-02T05:12:28.922Z,55.17
2022-11-02T05:14:31.917Z,72.70
2022-11-02T05:16:35.710Z,61.50
2022-11-02T05:18:39.651Z,55.55
2022-11-02T05:20:42.838Z,55.38
2022-11-02T05:22:45.297Z,55.25
2022-11-02T05:24:49.111Z,50.42
2022-11-02T05:26:53.899Z,42.50
2022-11-02T05:28:58.418Z,41.30
2022-11-02T05:31:01.795Z,40.85
2022-11-02T05:33:06.578Z,39.20
2022-11-02T05:35:10.087Z,36.03
2022-11-02T05:37:14.003Z,32.97
2022-11-02T05:39:16.063Z,34.50
2022-11-02T05:41:18.213Z,33.17
2022-11-02T05:43:20.457Z,36.10
2022-11-02T05:45:23.719Z,39.28
2022-11-02T05:47:26.448Z,39.38
2022-11-02T05:49:28.251Z,34.58
2022-11-02T05:51:30.135Z,33.33
2022-11-02T05:53:34.117Z,33.33
2022-11-02T05:56:02.220Z,33.63
2022-11-02T05:58:04.508Z,35.03
2022-11-02T06:00:07.535Z,32.70
2022-11-02T06:02:14.014Z,35.95
2022-11-02T06:04:15.967Z,37.00
2022-11-02T06:06:18.137Z,35.42
2022-11-02T06:08:23.183Z,34.17
2022-11-02T06:10:25.290Z,32.90
2022-11-02T06:12:27.106Z,33.90
2022-11-02T06:14:28.903Z,34.70
2022-11-02T06:16:31.314Z,33.95
2022-11-02T06:18:33.580Z,35.22
2022-11-02T06:20:35.471Z,31.88
2022-11-02T06:22:46.782Z,31.98
2022-11-02T06:24:48.562Z,33.25
2022-11-02T06:26:50.413Z,33.10
2022-11-02T06:28:52.610Z,30.23
2022-11-02T06:30:55.305Z,40.83
2022-11-02T06:32:59.441Z,35.22
2022-11-02T06:35:03.687Z,37.75
2022-11-02T06:37:05.420Z,56.40
2022-11-02T06:39:07.560Z,56.75
2022-11-02T06:41:09.860Z,51.83
2022-11-02T06:43:17.599Z,43.70
2022-11-02T06:45:19.732Z,42.38
2022-11-02T06:47:21.427Z,39.38
2022-11-02T06:49:23.606Z,39.03
2022-11-02T06:51:25.440Z,37.70
2022-11-02T06:53:27.283Z,37.65
2022-11-02T06:55:29.277Z,35.30
2022-11-02T06:57:36.668Z,34.05
2022-11-02T06:59:38.549Z,32.70
2022-11-02T07:01:43.091Z,31.15
2022-11-02T07:03:45.184Z,35.90
2022-11-02T07:05:52.092Z,40.28
2022-11-02T07:07:54.906Z,42.28
2022-11-02T07:09:57.025Z,36.28
2022-11-02T07:11:58.835Z,33.95
2022-11-02T07:14:00.655Z,29.70
2022-11-02T07:16:02.441Z,29.15
2022-11-02T07:18:06.244Z,31.42
2022-11-02T07:20:10.698Z,33.55
2022-11-02T07:22:12.572Z,56.00
2022-11-02T07:24:14.592Z,55.20
2022-11-02T07:26:16.819Z,70.18
2022-11-02T07:28:19.395Z,72.85
2022-11-02T07:30:21.509Z,84.63
2022-11-02T07:32:23.831Z,104.88
2022-11-02T07:34:25.759Z,97.85
2022-11-02T07:36:27.705Z,97.90
2022-11-02T07:38:29.881Z,88.40
2022-11-02T07:40:34.496Z,76.60
2022-11-02T07:42:36.722Z,66.45
2022-11-02T07:44:41.376Z,46.80
2022-11-02T07:46:43.933Z,41.47
2022-11-02T07:48:47.182Z,38.05
2022-11-02T07:50:48.975Z,30.27
2022-11-02T07:52:56.252Z,29.40
2022-11-02T07:54:58.114Z,24.95
2022-11-02T07:57:00.009Z,23.42
2022-11-02T07:59:01.899Z,22.95
2022-11-02T08:01:04.107Z,22.00
2022-11-02T08:03:08.465Z,29.63
2022-11-02T08:05:10.587Z,56.50
2022-11-02T08:07:12.689Z,97.72
2022-11-02T08:09:15.845Z,117.20
2022-11-02T08:11:17.700Z,178.00
2022-11-02T08:13:21.667Z,209.02
2022-11-02T08:15:24.436Z,148.68
2022-11-02T08:17:29.512Z,138.57
2022-11-02T08:19:31.517Z,103.22
2022-11-02T08:21:33.349Z,98.60
2022-11-02T08:23:35.206Z,74.40
2022-11-02T08:25:45.885Z,69.85
2022-11-02T08:27:47.957Z,72.22
2022-11-02T08:29:49.943Z,76.68
2022-11-02T08:31:52.100Z,67.35
2022-11-02T08:33:54.471Z,63.25
2022-11-02T08:36:02.977Z,48.10
2022-11-02T08:38:05.950Z,51.53
2022-11-02T08:40:08.905Z,48.25
2022-11-02T08:42:10.913Z,46.45
2022-11-02T08:44:13.247Z,44.33
2022-11-02T08:46:16.752Z,42.03
2022-11-02T08:48:19.291Z,37.55
2022-11-02T08:50:21.956Z,32.17
2022-11-02T08:52:24.384Z,32.38
2022-11-02T08:54:26.487Z,72.47
2022-11-02T08:56:28.745Z,97.30
2022-11-02T08:58:33.123Z,86.40
2022-11-02T09:00:35.941Z,71.60
2022-11-02T09:02:38.476Z,56.13
2022-11-02T09:04:40.663Z,50.90
2022-11-02T09:06:45.343Z,49.95
2022-11-02T09:08:47.356Z,48.25
2022-11-02T09:10:51.951Z,46.47
2022-11-02T09:12:54.589Z,35.15
2022-11-02T09:14:56.522Z,27.63
2022-11-02T09:16:58.282Z,28.98
2022-11-02T09:19:00.332Z,27.73
2022-11-02T09:21:03.788Z,25.63
2022-11-02T09:23:05.654Z,29.45
2022-11-02T09:25:08.031Z,33.63
2022-11-02T09:27:35.302Z,39.40
2022-11-02T09:29:37.318Z,35.95
2022-11-02T09:31:39.500Z,33.63
2022-11-02T09:33:43.960Z,31.42
2022-11-02T09:35:48.626Z,31.25
2022-11-02T09:37:51.184Z,31.00
2022-11-02T09:39:53.499Z,27.52
2022-11-02T09:42:28.331Z,27.67
2022-11-02T09:45:00.805Z,26.45
2022-11-02T09:47:55.759Z,40.03
2022-11-02T09:49:28.645Z,126.32
2022-11-02T09:51:37.841Z,119.00
2022-11-02T09:54:21.587Z,103.38
2022-11-02T09:56:27.464Z,70.45
2022-11-02T09:58:36.928Z,59.13
2022-11-02T10:00:42.017Z,58.50
2022-11-02T10:02:49.545Z,60.20
2022-11-02T10:05:16.510Z,60.38
2022-11-02T10:07:43.370Z,73.47
2022-11-02T10:10:00.086Z,98.85
2022-11-02T10:12:24.175Z,99.85
2022-11-02T10:14:38.247Z,68.65
2022-11-02T10:16:52.666Z,59.55
2022-11-02T10:18:55.278Z,53.97
2022-11-02T10:21:02.684Z,54.03
2022-11-02T10:23:09.711Z,50.10
2022-11-02T10:25:16.455Z,46.50
2022-11-02T10:27:32.290Z,53.00
2022-11-02T10:29:43.656Z,54.15
2022-11-02T10:31:46.553Z,64.78
2022-11-02T10:33:50.010Z,69.68
2022-11-02T10:36:18.184Z,69.00
2022-11-02T10:38:35.207Z,64.43
2022-11-02T10:41:03.201Z,65.80
2022-11-02T10:43:20.309Z,68.45
2022-11-02T10:45:59.659Z,65.75
2022-11-02T10:48:01.939Z,60.80
2022-11-02T10:50:35.524Z,53.42
2022-11-02T10:52:39.837Z,59.10
2022-11-02T10:54:42.238Z,58.10
2022-11-02T10:56:47.247Z,54.85
2022-11-02T10:59:14.494Z,49.22
2022-11-02T11:01:17.037Z,40.85
2022-11-02T11:03:19.957Z,43.08
2022-11-02T11:05:22.023Z,43.30
2022-11-02T11:07:27.944Z,38.25
2022-11-02T11:09:42.925Z,40.03
2022-11-02T11:12:03.160Z,49.25
2022-11-02T11:19:40.943Z,59.47
2022-11-02T11:21:43.680Z,54.08
2022-11-02T11:23:46.077Z,50.03
2022-11-02T11:26:02.124Z,43.58
2022-11-02T11:28:22.800Z,40.90
2022-11-02T11:30:59.481Z,33.42
2022-11-02T11:32:54.698Z,29.55
2022-11-02T11:35:06.934Z,33.65
2022-11-02T11:37:15.744Z,27.48
2022-11-02T11:39:28.875Z,27.17
2022-11-02T11:41:33.470Z,25.67
2022-11-02T11:43:38.627Z,25.50
2022-11-02T11:45:52.999Z,25.63
2022-11-02T11:48:02.275Z,27.60
2022-11-02T11:50:13.933Z,25.85
2022-11-02T11:52:31.943Z,27.52
2022-11-02T11:54:34.270Z,30.15
2022-11-02T11:56:36.499Z,28.52
2022-11-02T11:58:50.937Z,29.25
2022-11-02T12:01:12.449Z,27.15
2022-11-02T12:03:16.353Z,29.60
2022-11-02T12:05:20.968Z,32.15
2022-11-02T12:07:25.728Z,30.05
2022-11-02T12:09:36.763Z,31.58
2022-11-02T12:11:41.528Z,35.80
2022-11-02T12:14:25.828Z,34.90
2022-11-02T12:16:34.401Z,33.78
2022-11-02T12:18:56.812Z,33.33
2022-11-02T12:21:17.309Z,32.42
2022-11-02T12:23:39.711Z,27.95
2022-11-02T12:26:18.585Z,28.27
2022-11-02T12:28:40.903Z,28.10
2022-11-02T12:31:04.067Z,27.10
2022-11-02T12:33:17.284Z,26.48
2022-11-02T12:35:41.635Z,26.15
2022-11-02T12:38:08.184Z,28.25
2022-11-02T12:40:13.088Z,28.10
2022-11-02T12:42:35.810Z,28.52
2022-11-02T12:45:09.681Z,31.35
2022-11-02T12:47:37.091Z,28.52
2022-11-02T12:49:52.834Z,29.90
2022-11-02T12:52:28.401Z,32.40
2022-11-02T12:54:54.388Z,31.13
2022-11-02T12:56:56.891Z,33.28
2022-11-02T12:59:00.538Z,36.72
2022-11-02T13:01:18.328Z,39.03
2022-11-02T13:03:29.093Z,39.47
2022-11-02T13:05:39.928Z,39.92
2022-11-02T13:07:50.571Z,36.03
2022-11-02T13:10:08.427Z,34.42
2022-11-02T13:12:15.206Z,29.85
2022-11-02T13:14:22.406Z,30.52
2022-11-02T13:17:02.507Z,31.33
2022-11-02T13:19:07.142Z,34.70
2022-11-02T13:21:13.943Z,35.38
2022-11-02T13:23:26.877Z,32.45
2022-11-02T13:25:37.701Z,31.52
2022-11-02T13:27:50.767Z,35.38
2022-11-02T13:29:56.705Z,36.88
2022-11-02T13:32:07.022Z,35.83
2022-11-02T13:34:15.528Z,32.80
2022-11-02T13:36:18.849Z,32.55
2022-11-02T13:38:39.384Z,33.03
2022-11-02T13:40:59.823Z,31.77
2022-11-02T13:43:10.882Z,33.38
2022-11-02T13:45:38.681Z,32.22
2022-11-02T13:47:46.781Z,30.38
2022-11-02T13:49:53.995Z,31.15
2022-11-02T13:52:13.860Z,57.10
2022-11-02T13:54:40.619Z,58.67
2022-11-02T13:56:43.597Z,53.65
2022-11-02T13:58:54.097Z,50.78
2022-11-02T14:01:01.604Z,49.67
2022-11-02T14:03:28.130Z,45.92
2022-11-02T14:05:36.004Z,47.63
2022-11-02T14:07:41.900Z,49.65
2022-11-02T14:09:45.367Z,44.75
2022-11-02T14:11:49.921Z,47.10
2022-11-02T14:13:52.253Z,46.50
2022-11-02T14:15:54.335Z,46.60
2022-11-02T14:17:57.010Z,51.00
2022-11-02T14:20:37.231Z,60.92
2022-11-02T14:22:39.028Z,66.38
2022-11-02T14:24:41.060Z,76.32
2022-11-02T14:27:13.655Z,85.78
2022-11-02T14:29:47.340Z,73.35
2022-11-02T14:31:57.311Z,67.85
2022-11-02T14:34:25.191Z,61.08
2022-11-02T14:36:55.357Z,59.35
2022-11-02T14:39:17.779Z,63.05
2022-11-02T14:41:33.056Z,58.75
2022-11-02T14:44:12.373Z,48.45
2022-11-02T14:46:53.356Z,47.45
2022-11-02T14:48:58.957Z,46.70
2022-11-02T14:51:12.196Z,57.15
2022-11-02T14:53:25.783Z,57.40
2022-11-02T14:55:31.561Z,59.20
2022-11-02T14:57:42.984Z,70.53
2022-11-02T14:59:49.325Z,88.38
2022-11-02T15:02:00.030Z,107.38
2022-11-02T15:04:08.082Z,101.70
2022-11-02T15:06:25.655Z,118.65
2022-11-02T15:08:32.256Z,105.95
2022-11-02T15:10:43.397Z,106.55
2022-11-02T15:12:47.930Z,115.65
2022-11-02T15:14:49.996Z,112.93
2022-11-02T15:16:54.426Z,100.78
2022-11-02T15:19:35.002Z,90.03
2022-11-02T15:21:37.833Z,70.05
2022-11-02T15:24:04.782Z,68.07
2022-11-02T15:26:12.402Z,73.63
2022-11-02T15:28:17.936Z,77.28
2022-11-02T15:30:27.797Z,75.13
2022-11-02T15:32:35.337Z,88.43
2022-11-02T15:34:49.996Z,103.88
2022-11-02T15:36:52.506Z,89.35
2022-11-02T15:38:55.331Z,86.60
2022-11-02T15:41:17.402Z,81.20
2022-11-02T15:46:12.296Z,65.10
2022-11-02T15:48:51.584Z,56.65
2022-11-02T15:51:14.280Z,46.30
2022-11-02T15:53:25.376Z,43.42
2022-11-02T15:56:11.973Z,46.08
2022-11-02T15:58:33.010Z,38.58
2022-11-02T16:00:35.219Z,37.17
2022-11-02T16:02:41.413Z,37.20
2022-11-02T16:04:50.401Z,39.67
2022-11-02T16:06:53.655Z,41.70
2022-11-02T16:09:01.599Z,43.47
2022-11-02T16:11:13.971Z,38.75
2022-11-02T16:13:20.973Z,35.92
2022-11-02T16:15:23.174Z,32.65
2022-11-02T16:17:28.191Z,33.22
2022-11-02T16:19:30.704Z,30.08
2022-11-02T16:21:35.555Z,30.58
2022-11-02T16:23:40.453Z,30.38
2022-11-02T16:25:50.469Z,26.85
2022-11-02T16:27:52.808Z,31.10
2022-11-02T16:29:54.939Z,35.78
2022-11-02T16:31:58.332Z,39.97
2022-11-02T16:34:23.081Z,40.22
2022-11-02T16:36:45.505Z,34.78
2022-11-02T16:39:25.235Z,30.40
2022-11-02T16:41:32.197Z,29.75
2022-11-02T16:43:36.267Z,29.30
2022-11-02T16:45:43.364Z,28.80
2022-11-02T16:47:46.850Z,43.92
2022-11-02T16:49:51.927Z,38.92
2022-11-02T16:51:56.707Z,41.30
2022-11-02T16:54:18.440Z,41.30
2022-11-02T16:56:27.814Z,36.50
2022-11-02T16:58:29.964Z,30.13
2022-11-02T17:00:37.487Z,29.02
2022-11-02T17:02:42.118Z,26.92
2022-11-02T17:04:47.089Z,36.65
2022-11-02T17:06:54.010Z,50.58
2022-11-02T17:08:56.287Z,52.65
2022-11-02T17:11:01.136Z,33.38
2022-11-02T17:13:07.357Z,28.45
2022-11-02T17:15:21.087Z,28.45
2022-11-02T17:17:29.974Z,27.63
2022-11-02T17:19:40.853Z,24.45
2022-11-02T17:21:44.518Z,27.92
2022-11-02T17:23:48.366Z,45.03
2022-11-02T17:29:46.182Z,44.33
2022-11-02T17:31:56.525Z,39.95
2022-11-02T17:34:02.511Z,31.52
2022-11-02T17:36:07.528Z,30.33
2022-11-02T17:38:10.260Z,32.63
2022-11-02T17:40:13.182Z,32.17
2022-11-02T17:42:35.269Z,35.75
2022-11-02T17:44:37.375Z,33.70
2022-11-02T17:46:41.729Z,30.23
2022-11-02T17:48:46.957Z,29.58
2022-11-02T17:50:53.337Z,28.27
2022-11-02T17:52:57.626Z,30.02
2022-11-02T17:54:59.597Z,29.35
2022-11-02T17:57:02.383Z,27.15
2022-11-02T17:59:04.477Z,28.65
2022-11-02T18:01:07.589Z,24.65
2022-11-02T18:03:16.053Z,26.25
2022-11-02T18:05:25.764Z,25.40
2022-11-02T18:07:27.833Z,30.05
2022-11-02T18:09:30.438Z,37.58
2022-11-02T18:11:32.344Z,37.75
2022-11-02T18:13:34.405Z,41.38
2022-11-02T18:15:36.763Z,40.20
2022-11-02T18:17:39.218Z,36.38
2022-11-02T18:19:44.367Z,35.28
2022-11-02T18:21:46.466Z,31.58
2022-11-02T18:23:48.973Z,40.42
2022-11-02T18:25:53.925Z,48.97
2022-11-02T18:28:01.493Z,61.28
2022-11-02T18:38:10.763Z,63.28
2022-11-02T18:40:15.257Z,82.50
2022-11-02T18:42:17.376Z,81.75
2022-11-02T18:44:19.937Z,75.13
2022-11-02T18:46:24.331Z,65.90
2022-11-02T18:48:29.195Z,52.88
2022-11-02T18:50:31.151Z,50.13
2022-11-02T18:52:33.518Z,50.33
2022-11-02T18:54:35.584Z,52.70
2022-11-02T18:56:37.615Z,51.33
2022-11-02T18:58:39.905Z,47.13
2022-11-02T19:00:42.095Z,57.35
2022-11-02T19:02:44.100Z,56.03
2022-11-02T19:04:46.035Z,52.35
2022-11-02T19:07:06.504Z,45.92
2022-11-02T19:09:20.443Z,51.10
2022-11-02T19:11:23.151Z,52.45
2022-11-02T19:13:25.163Z,51.40
2022-11-02T19:15:27.042Z,53.35
2022-11-02T19:17:29.403Z,44.58
2022-11-02T19:19:31.682Z,39.10
2022-11-02T19:21:33.442Z,41.78
2022-11-02T19:23:35.369Z,40.95
2022-11-02T19:25:37.402Z,45.92
2022-11-02T19:27:39.758Z,40.72
2022-11-02T19:29:41.808Z,41.42
2022-11-02T19:31:44.371Z,35.45
2022-11-02T19:34:39.794Z,31.67
2022-11-02T19:36:43.562Z,32.47
2022-11-02T19:38:45.380Z,33.95
2022-11-02T19:40:47.299Z,38.47
2022-11-02T19:42:49.417Z,40.22
2022-11-02T19:44:51.281Z,52.90
2022-11-02T19:46:53.452Z,41.25
2022-11-02T19:48:57.987Z,36.40
2022-11-02T19:51:17.593Z,41.45
2022-11-02T19:53:22.419Z,49.03
2022-11-02T19:55:28.762Z,53.53
2022-11-02T19:57:33.309Z,44.97
2022-11-02T19:59:35.575Z,35.83
2022-11-02T20:01:42.688Z,34.78
2022-11-02T20:03:46.600Z,32.33
2022-11-02T20:05:48.933Z,28.55
2022-11-02T20:07:52.067Z,33.88
2022-11-02T20:09:57.195Z,33.22
2022-11-02T20:12:03.147Z,28.95
2022-11-02T20:14:05.869Z,27.75
2022-11-02T20:16:09.312Z,29.02
2022-11-02T20:18:19.354Z,27.70
2022-11-02T20:20:22.270Z,27.83
2022-11-02T20:22:24.533Z,29.90
2022-11-02T20:24:28.761Z,32.78
2022-11-02T20:26:34.061Z,30.90
2022-11-02T20:28:41.166Z,28.88
2022-11-02T20:30:43.674Z,28.75
2022-11-02T20:32:46.175Z,29.20
2022-11-02T20:34:48.240Z,39.88
2022-11-02T20:36:50.786Z,34.75
2022-11-02T20:38:54.427Z,31.23
2022-11-02T20:41:06.511Z,29.08
2022-11-02T20:43:08.591Z,31.42
2022-11-02T20:45:10.990Z,28.90
2022-11-02T20:47:13.117Z,30.45
2022-11-02T20:49:22.712Z,30.08
2022-11-02T20:51:37.340Z,32.53
2022-11-02T20:53:40.306Z,30.75
2022-11-02T20:55:45.082Z,31.92
2022-11-02T20:57:50.959Z,32.05
2022-11-02T20:59:53.292Z,30.30
2022-11-02T21:01:55.595Z,30.45
2022-11-02T21:03:57.801Z,29.98
2022-11-02T21:06:05.558Z,33.80
2022-11-02T21:08:07.811Z,36.42
2022-11-02T21:10:10.758Z,40.05
2022-11-02T21:12:34.463Z,37.17
2022-11-02T21:14:38.880Z,34.55
2022-11-02T21:16:41.097Z,31.98
2022-11-02T21:18:43.243Z,31.20
2022-11-02T21:20:45.716Z,33.83
2022-11-02T21:22:50.487Z,35.85
2022-11-02T21:24:52.765Z,36.33
2022-11-02T21:26:55.291Z,34.75
2022-11-02T21:28:57.295Z,34.67
2022-11-02T21:31:08.039Z,37.20
2022-11-02T21:33:10.283Z,35.63
2022-11-02T21:35:12.146Z,30.42
2022-11-02T21:37:17.029Z,26.95
2022-11-02T21:39:20.055Z,28.60
2022-11-02T21:41:29.125Z,27.85
2022-11-02T21:43:32.548Z,24.67
2022-11-02T21:45:37.853Z,28.58
2022-11-02T21:47:40.606Z,29.25
2022-11-02T21:49:42.805Z,27.48
2022-11-02T21:51:45.201Z,26.67
2022-11-02T21:53:48.570Z,28.80
2022-11-02T21:56:02.711Z,27.13
2022-11-02T21:58:04.792Z,27.65
2022-11-02T22:00:07.408Z,30.83
2022-11-02T22:02:14.632Z,26.40
2022-11-02T22:04:25.411Z,28.15
2022-11-02T22:06:31.318Z,26.15
2022-11-02T22:08:42.551Z,26.02
2022-11-02T22:10:44.827Z,26.38
2022-11-02T22:13:05.655Z,26.92
2022-11-02T22:15:08.730Z,27.58
2022-11-02T22:17:22.082Z,28.15
2022-11-02T22:19:31.213Z,27.98
2022-11-02T22:21:36.841Z,24.65
2022-11-02T22:23:39.970Z,25.50
2022-11-02T22:25:41.926Z,30.10
2022-11-02T22:27:44.084Z,27.25
2022-11-02T22:29:46.382Z,28.15
2022-11-02T22:31:48.690Z,27.75
2022-11-02T22:33:53.273Z,28.85
2022-11-02T22:35:55.182Z,27.42
2022-11-02T22:38:15.877Z,27.08
2022-11-02T22:40:20.551Z,27.80
2022-11-02T22:42:22.628Z,28.58
2022-11-02T22:44:24.725Z,28.10
2022-11-02T22:46:27.744Z,26.15
2022-11-02T22:48:33.174Z,28.33
2022-11-02T22:50:35.315Z,28.67
2022-11-02T22:52:37.439Z,26.75
2022-11-02T22:54:39.725Z,25.95
2022-11-02T22:56:43.225Z,26.75
2022-11-02T22:58:47.165Z,26.10
2022-11-02T23:00:49.419Z,27.30
2022-11-02T23:02:51.867Z,25.60
2022-11-02T23:04:53.955Z,24.50
2022-11-02T23:06:56.030Z,26.27
2022-11-02T23:08:59.202Z,24.52
2022-11-02T23:11:20.918Z,22.92
2022-11-02T23:13:23.551Z,24.60
2022-11-02T23:15:25.786Z,24.33
2022-11-02T23:17:27.969Z,23.17
2022-11-02T23:19:30.190Z,23.23
2022-11-02T23:21:32.825Z,22.52
2022-11-02T23:23:53.631Z,25.15
2022-11-02T23:25:57.491Z,24.30
2022-11-02T23:28:18.501Z,21.30
2022-11-02T23:30:39.034Z,21.02
2022-11-02T23:32:42.100Z,22.23
2022-11-02T23:35:04.119Z,20.63
2022-11-02T23:37:06.706Z,20.92
2022-11-02T23:39:27.338Z,22.50
2022-11-02T23:41:38.923Z,22.55
2022-11-02T23:43:41.370Z,22.10
2022-11-02T23:45:43.325Z,24.33
2022-11-02T23:47:57.283Z,24.83
2022-11-02T23:49:59.313Z,26.05
2022-11-02T23:52:40.175Z,28.60
2022-11-02T23:55:01.291Z,31.30
2022-11-02T23:57:03.498Z,30.60
2022-11-02T23:59:06.711Z,32.08
